Time;durP1;ratioP1;P1;durP2;ratioP2;P2;SDS_P1;SDS_P2;PMS_P1;PMS_P2;Temp;Humidity;BMP_temperature;BMP_pressure;BME280_temperature;BME280_humidity;BME280_pressure;Samples;Min_cycle;Max_cycle;Signal;HPM_P1;HPM_P2
2021/06/04 00:01:20;;;;;;;10.32;8.57;;;23.80;69.70;;;;;;1481653;40;20025;-60
2021/06/04 00:02:42;;;;;;;9.23;8.32;;;23.80;69.90;;;;;;1481795;40;20041;-61
2021/06/04 00:04:04;;;;;;;9.00;8.10;;;23.80;69.80;;;;;;1482153;40;20044;-61
2021/06/04 00:05:31;;;;;;;8.80;8.00;;;23.70;69.80;;;;;;1481584;40;20080;-60
2021/06/04 00:06:52;;;;;;;9.30;8.30;;;23.70;69.90;;;;;;1480427;40;20040;-61
2021/06/04 00:08:14;;;;;;;10.40;7.97;;;23.70;69.70;;;;;;1481316;40;20048;-61
2021/06/04 00:09:35;;;;;;;9.32;8.43;;;23.70;69.80;;;;;;1481026;40;20037;-60
2021/06/04 00:10:59;;;;;;;8.32;7.57;;;23.70;69.80;;;;;;1482073;40;20092;-60
2021/06/04 00:12:20;;;;;;;8.98;8.10;;;23.70;70.00;;;;;;1481124;40;20025;-61
2021/06/04 00:14:00;;;;;;;8.82;7.95;;;23.70;70.60;;;;;;1481787;40;20408;-61
2021/06/04 00:15:26;;;;;;;11.43;8.52;;;23.70;70.30;;;;;;1476712;40;20067;-61
2021/06/04 00:16:52;;;;;;;8.45;7.65;;;23.70;70.20;;;;;;1479147;40;20045;-61
2021/06/04 00:18:14;;;;;;;9.82;8.73;;;23.70;70.00;;;;;;1469013;40;20045;-61
2021/06/04 00:19:35;;;;;;;9.73;8.75;;;23.70;69.90;;;;;;1474150;40;20445;-61
2021/06/04 00:20:59;;;;;;;9.38;8.48;;;23.80;70.10;;;;;;1472725;40;20396;-61
2021/06/04 00:22:24;;;;;;;9.52;8.65;;;23.70;70.10;;;;;;1477360;40;20022;-61
2021/06/04 00:23:46;;;;;;;10.18;9.18;;;23.70;70.10;;;;;;1475659;40;20044;-62
2021/06/04 00:25:07;;;;;;;10.68;9.65;;;23.70;70.10;;;;;;1478227;40;20048;-61
2021/06/04 00:26:31;;;;;;;10.32;8.73;;;23.70;70.10;;;;;;1476859;40;20362;-61
2021/06/04 00:27:51;;;;;;;10.93;9.70;;;23.80;70.10;;;;;;1476898;40;20040;-61
2021/06/04 00:29:13;;;;;;;11.10;9.95;;;23.70;70.00;;;;;;1477946;40;20029;-61
2021/06/04 00:30:34;;;;;;;10.00;9.10;;;23.70;70.10;;;;;;1477370;40;20038;-61
2021/06/04 00:31:56;;;;;;;9.88;8.88;;;23.70;70.10;;;;;;1479215;40;20045;-61
2021/06/04 00:33:16;;;;;;;11.48;10.38;;;23.70;70.20;;;;;;1476462;40;20037;-61
2021/06/04 00:34:38;;;;;;;11.90;10.68;;;23.70;70.20;;;;;;1477280;40;20076;-61
2021/06/04 00:35:59;;;;;;;12.25;11.05;;;23.70;70.30;;;;;;1478832;40;20033;-61
2021/06/04 00:37:20;;;;;;;12.27;11.07;;;23.70;70.30;;;;;;1477705;40;20033;-61
2021/06/04 00:38:41;;;;;;;10.90;9.82;;;23.70;70.40;;;;;;1476427;40;20562;-60
2021/06/04 00:40:18;;;;;;;11.35;10.20;;;23.70;70.30;;;;;;1477729;40;20040;-60
2021/06/04 00:41:45;;;;;;;12.23;10.98;;;23.70;70.50;;;;;;1477765;40;20267;-61
2021/06/04 00:43:07;;;;;;;14.40;12.88;;;23.70;70.60;;;;;;1472483;40;20041;-61
2021/06/04 00:44:28;;;;;;;14.75;13.25;;;23.70;70.50;;;;;;1476992;40;20025;-61
2021/06/04 00:45:52;;;;;;;13.02;11.73;;;23.70;70.50;;;;;;1476677;40;20036;-61
2021/06/04 00:47:13;;;;;;;12.65;11.35;;;23.70;70.60;;;;;;1476316;40;20264;-60
2021/06/04 00:48:36;;;;;;;12.57;11.38;;;23.70;70.50;;;;;;1477126;40;20033;-60
2021/06/04 00:49:57;;;;;;;13.40;11.98;;;23.70;70.50;;;;;;1477391;40;20038;-60
2021/06/04 00:51:20;;;;;;;12.00;10.90;;;23.70;70.60;;;;;;1477343;40;20039;-62
2021/06/04 00:52:42;;;;;;;11.30;10.20;;;23.70;70.70;;;;;;1478101;40;20066;-60
2021/06/04 00:54:05;;;;;;;11.20;10.00;;;23.70;70.60;;;;;;1476611;40;20038;-60
2021/06/04 00:55:27;;;;;;;12.25;10.75;;;23.70;70.60;;;;;;1476382;40;20061;-60
2021/06/04 00:56:48;;;;;;;12.68;10.23;;;23.70;70.60;;;;;;1476535;40;20045;-61
2021/06/04 00:58:13;;;;;;;11.27;10.25;;;23.70;70.60;;;;;;1476371;40;20371;-60
2021/06/04 00:59:38;;;;;;;12.32;10.68;;;23.70;70.70;;;;;;1476701;40;20029;-60
2021/06/04 01:01:01;;;;;;;11.73;10.10;;;23.60;70.50;;;;;;1477830;40;20278;-60
2021/06/04 01:02:24;;;;;;;13.02;11.73;;;23.70;70.60;;;;;;1477576;40;20053;-60
2021/06/04 01:03:52;;;;;;;13.50;12.05;;;23.70;70.60;;;;;;1476184;40;20061;-60
2021/06/04 01:05:14;;;;;;;13.43;12.13;;;23.70;71.00;;;;;;1477635;40;20049;-60
2021/06/04 01:06:47;;;;;;;13.48;12.10;;;23.70;70.80;;;;;;1478041;40;20102;-60
2021/06/04 01:08:36;;;;;;;12.35;11.15;;;23.60;71.00;;;;;;1476257;40;20041;-60
2021/06/04 01:10:12;;;;;;;12.07;10.88;;;23.60;71.00;;;;;;1477933;40;20349;-60
2021/06/04 01:11:39;;;;;;;12.40;11.20;;;23.70;70.70;;;;;;1477405;40;20351;-60
2021/06/04 01:13:27;;;;;;;14.55;12.43;;;23.70;70.80;;;;;;1470829;40;20054;-60
2021/06/04 01:15:05;;;;;;;12.43;10.75;;;23.60;71.00;;;;;;1477086;40;20081;-60
2021/06/04 01:16:37;;;;;;;11.68;10.52;;;23.60;70.80;;;;;;1479051;40;20048;-60
2021/06/04 01:18:12;;;;;;;14.20;11.75;;;23.60;70.70;;;;;;1478041;40;20049;-60
2021/06/04 01:19:42;;;;;;;13.38;12.05;;;23.60;70.90;;;;;;1476912;40;20100;-60
2021/06/04 01:21:24;;;;;;;14.60;11.63;;;23.70;70.90;;;;;;1478863;40;20045;-60
2021/06/04 01:22:51;;;;;;;18.00;14.02;;;23.60;70.80;;;;;;1475514;40;20027;-61
2021/06/04 01:24:40;;;;;;;15.85;13.65;;;23.60;71.60;;;;;;1478284;40;20045;-61
2021/06/04 01:26:17;;;;;;;13.73;12.32;;;23.60;71.20;;;;;;1479000;40;20086;-60
2021/06/04 01:27:44;;;;;;;14.32;12.77;;;23.60;70.90;;;;;;1477534;40;20044;-60
2021/06/04 01:29:10;;;;;;;17.80;14.85;;;23.60;70.70;;;;;;1477257;40;20033;-60
2021/06/04 01:30:36;;;;;;;16.60;14.85;;;23.60;70.90;;;;;;1476567;40;20029;-60
2021/06/04 01:32:01;;;;;;;14.63;13.18;;;23.60;70.90;;;;;;1479209;40;20115;-60
2021/06/04 01:33:32;;;;;;;14.73;13.05;;;23.60;70.90;;;;;;1477568;40;20025;-60
2021/06/04 01:35:02;;;;;;;14.45;13.05;;;23.60;70.90;;;;;;1469656;40;20250;-60
2021/06/04 01:36:27;;;;;;;15.98;13.38;;;23.60;70.90;;;;;;1476096;40;20403;-60
2021/06/04 01:37:49;;;;;;;16.02;14.13;;;23.50;70.90;;;;;;1477023;40;20073;-60
2021/06/04 01:39:19;;;;;;;17.20;15.43;;;23.60;70.90;;;;;;1477661;40;20044;-61
2021/06/04 01:40:44;;;;;;;16.67;14.93;;;23.60;71.30;;;;;;1476694;40;20064;-60
2021/06/04 01:42:07;;;;;;;18.13;16.17;;;23.50;71.10;;;;;;1474126;40;20386;-60
2021/06/04 01:43:37;;;;;;;17.85;15.25;;;23.50;71.10;;;;;;1475390;40;20025;-60
2021/06/04 01:45:07;;;;;;;14.32;12.80;;;23.50;71.30;;;;;;1477350;40;20053;-60
2021/06/04 01:46:31;;;;;;;;;;;23.50;71.10;;;;;;1477896;40;20118;-60
2021/06/04 01:48:19;;;;;;;13.70;12.07;;;23.60;71.30;;;;;;1475152;40;19933;-60
2021/06/04 01:49:42;;;;;;;14.30;12.90;;;23.50;70.90;;;;;;1476427;40;20119;-60
2021/06/04 01:51:08;;;;;;;17.58;15.73;;;23.50;70.70;;;;;;1476893;40;20063;-60
2021/06/04 01:52:34;;;;;;;17.80;16.00;;;23.50;71.00;;;;;;1476310;40;20343;-60
2021/06/04 01:54:00;;;;;;;16.55;14.82;;;23.50;71.10;;;;;;1476879;40;20060;-60
2021/06/04 01:55:29;;;;;;;19.63;17.48;;;23.50;71.10;;;;;;1476508;40;20310;-60
2021/06/04 01:56:57;;;;;;;19.02;17.02;;;23.50;71.30;;;;;;1476829;40;20037;-60
2021/06/04 01:58:29;;;;;;;20.63;17.63;;;23.50;71.50;;;;;;1476482;40;20748;-60
2021/06/04 01:59:52;;;;;;;22.08;19.33;;;23.50;71.80;;;;;;1477160;40;20079;-60
2021/06/04 02:01:18;;;;;;;22.13;19.80;;;23.50;71.40;;;;;;1476811;40;20033;-60
2021/06/04 02:02:39;;;;;;;21.30;19.00;;;23.50;72.30;;;;;;1476171;40;20045;-61
2021/06/04 02:04:04;;;;;;;20.65;18.52;;;23.50;71.50;;;;;;1477533;40;20037;-60
2021/06/04 02:05:29;;;;;;;21.63;19.30;;;23.50;71.60;;;;;;1477253;40;20029;-60
2021/06/04 02:06:51;;;;;;;22.65;19.98;;;23.50;71.60;;;;;;1476969;40;20522;-60
2021/06/04 02:08:26;;;;;;;21.17;18.98;;;23.40;71.40;;;;;;1476275;40;20080;-60
2021/06/04 02:09:48;;;;;;;22.88;18.73;;;23.50;71.70;;;;;;1476916;40;20147;-60
2021/06/04 02:11:10;;;;;;;21.45;19.13;;;23.40;71.50;;;;;;1477855;40;20392;-60
2021/06/04 02:12:31;;;;;;;21.27;19.10;;;23.40;71.70;;;;;;1474554;40;20074;-60
2021/06/04 02:13:52;;;;;;;22.10;19.70;;;23.40;71.50;;;;;;1476249;40;20041;-60
2021/06/04 02:15:29;;;;;;;20.95;18.63;;;23.40;71.50;;;;;;1476655;40;20048;-60
2021/06/04 02:17:02;;;;;;;22.30;18.42;;;23.40;71.90;;;;;;1475110;40;20089;-60
2021/06/04 02:18:39;;;;;;;21.73;19.17;;;23.40;71.90;;;;;;1474765;40;20101;-60
2021/06/04 02:20:17;;;;;;;20.33;17.25;;;23.40;72.10;;;;;;1475458;40;20073;-60
2021/06/04 02:21:49;;;;;;;20.73;17.48;;;23.40;72.00;;;;;;1477212;40;20029;-61
2021/06/04 02:23:25;;;;;;;22.10;19.73;;;23.40;72.00;;;;;;1477308;40;20051;-60
2021/06/04 02:25:07;;;;;;;21.27;18.92;;;23.30;71.70;;;;;;1478384;40;20061;-60
2021/06/04 02:26:33;;;;;;;21.77;18.13;;;23.30;72.30;;;;;;1478541;40;20052;-60
2021/06/04 02:28:03;;;;;;;21.25;19.02;;;23.30;71.90;;;;;;1476066;40;20048;-61
2021/06/04 02:29:36;;;;;;;18.50;16.60;;;23.30;72.10;;;;;;1478953;40;20029;-60
2021/06/04 02:31:01;;;;;;;19.73;17.08;;;23.30;72.00;;;;;;1478471;40;20065;-61
2021/06/04 02:32:27;;;;;;;20.85;17.40;;;23.30;71.80;;;;;;1478614;40;20061;-60
2021/06/04 02:34:04;;;;;;;19.20;17.25;;;23.30;71.80;;;;;;1475452;40;20072;-60
2021/06/04 02:35:32;;;;;;;20.67;17.50;;;23.30;72.00;;;;;;1478262;40;20036;-61
2021/06/04 02:36:59;;;;;;;21.50;19.20;;;23.30;71.80;;;;;;1471776;40;20579;-60
2021/06/04 02:38:29;;;;;;;22.55;19.60;;;23.30;71.90;;;;;;1474328;40;20021;-61
2021/06/04 02:39:59;;;;;;;21.77;19.42;;;23.30;71.90;;;;;;1478613;40;20333;-60
2021/06/04 02:41:26;;;;;;;19.50;17.42;;;23.30;72.10;;;;;;1481176;40;20048;-60
2021/06/04 02:42:58;;;;;;;22.70;19.52;;;23.30;71.90;;;;;;1477815;40;20069;-60
2021/06/04 02:44:28;;;;;;;22.42;19.83;;;23.30;72.20;;;;;;1476613;40;20045;-60
2021/06/04 02:45:58;;;;;;;;;;;23.30;72.20;;;;;;1480132;40;20042;-60
2021/06/04 02:47:45;;;;;;;20.48;17.27;;;23.20;72.10;;;;;;1477962;40;20014;-60
2021/06/04 02:49:09;;;;;;;20.15;18.02;;;23.30;72.10;;;;;;1477472;40;20370;-60
2021/06/04 02:50:40;;;;;;;21.08;18.88;;;23.30;71.60;;;;;;1478205;40;20362;-60
2021/06/04 02:52:24;;;;;;;21.17;19.00;;;23.20;71.70;;;;;;1476240;40;20322;-60
2021/06/04 02:53:47;;;;;;;19.20;17.15;;;23.20;71.90;;;;;;1474303;40;20457;-60
2021/06/04 02:55:27;;;;;;;18.88;16.73;;;23.20;71.70;;;;;;1478866;40;20040;-60
2021/06/04 02:56:52;;;;;;;19.38;17.38;;;23.20;71.90;;;;;;1477779;40;20049;-60
2021/06/04 02:58:12;;;;;;;22.55;19.48;;;23.20;71.70;;;;;;1478776;40;20036;-60
2021/06/04 02:59:40;;;;;;;25.02;21.48;;;23.20;71.80;;;;;;1476224;40;20374;-60
2021/06/04 03:01:04;;;;;;;21.70;19.08;;;23.20;72.20;;;;;;1480076;40;20044;-60
2021/06/04 03:02:31;;;;;;;19.70;17.70;;;23.20;72.10;;;;;;1471177;40;20036;-60
2021/06/04 03:03:57;;;;;;;19.73;17.65;;;23.20;72.20;;;;;;1477127;40;20037;-60
2021/06/04 03:05:24;;;;;;;19.90;17.73;;;23.20;72.00;;;;;;1473226;40;20054;-60
2021/06/04 03:06:49;;;;;;;19.27;17.20;;;23.20;72.20;;;;;;1477577;40;20565;-60
2021/06/04 03:08:10;;;;;;;18.75;16.85;;;23.20;72.00;;;;;;1477542;40;20040;-60
2021/06/04 03:09:36;;;;;;;19.48;17.40;;;23.20;71.90;;;;;;1478045;40;20029;-60
2021/06/04 03:10:57;;;;;;;18.95;16.90;;;23.10;71.90;;;;;;1480000;40;20043;-60
2021/06/04 03:12:25;;;;;;;19.85;17.85;;;23.20;71.80;;;;;;1478310;40;20032;-59
2021/06/04 03:13:48;;;;;;;20.27;18.08;;;23.20;71.90;;;;;;1477528;40;20028;-60
2021/06/04 03:15:19;;;;;;;21.77;19.42;;;23.10;71.80;;;;;;1481404;40;20113;-60
2021/06/04 03:16:41;;;;;;;22.13;19.55;;;23.20;72.20;;;;;;1480623;40;20083;-60
2021/06/04 03:18:03;;;;;;;22.40;19.90;;;23.20;72.00;;;;;;1481796;40;20090;-60
2021/06/04 03:19:26;;;;;;;23.63;21.10;;;23.20;72.10;;;;;;1482154;40;20032;-60
2021/06/04 03:20:48;;;;;;;24.02;21.33;;;23.10;72.00;;;;;;1483310;40;20032;-60
2021/06/04 03:22:14;;;;;;;23.35;20.58;;;23.20;72.10;;;;;;1481102;40;20044;-60
2021/06/04 03:23:36;;;;;;;24.38;21.75;;;23.20;72.20;;;;;;1480117;40;20032;-60
2021/06/04 03:25:10;;;;;;;23.75;20.92;;;23.20;72.00;;;;;;1482105;40;20035;-60
2021/06/04 03:26:32;;;;;;;22.83;20.35;;;23.20;72.20;;;;;;1482603;40;20032;-60
2021/06/04 03:27:53;;;;;;;23.17;20.77;;;23.10;72.00;;;;;;1481632;40;20029;-61
2021/06/04 03:29:17;;;;;;;24.08;21.48;;;23.10;72.00;;;;;;1483390;40;20084;-60
2021/06/04 03:30:41;;;;;;;24.55;21.77;;;23.10;72.20;;;;;;1480908;40;20040;-60
2021/06/04 03:32:09;;;;;;;22.90;20.48;;;23.10;72.20;;;;;;1480270;40;20037;-60
2021/06/04 03:33:34;;;;;;;23.52;20.90;;;23.10;72.40;;;;;;1480541;40;20033;-60
2021/06/04 03:34:54;;;;;;;23.15;20.40;;;23.10;72.30;;;;;;1482260;40;20056;-60
2021/06/04 03:36:21;;;;;;;22.65;20.17;;;23.10;72.30;;;;;;1479667;40;20033;-60
2021/06/04 03:37:43;;;;;;;23.38;20.88;;;23.10;72.40;;;;;;1480960;40;20033;-60
2021/06/04 03:39:08;;;;;;;23.77;21.00;;;23.10;72.30;;;;;;1483224;40;20200;-60
2021/06/04 03:40:31;;;;;;;23.15;20.70;;;23.10;72.40;;;;;;1481259;40;20920;-60
2021/06/04 03:41:53;;;;;;;23.42;20.95;;;23.10;72.40;;;;;;1479571;40;20053;-60
2021/06/04 03:43:18;;;;;;;25.13;20.63;;;23.00;72.30;;;;;;1482542;40;20033;-61
2021/06/04 03:44:43;;;;;;;20.65;18.52;;;23.10;72.50;;;;;;1479581;40;20044;-60
2021/06/04 03:46:04;;;;;;;22.17;19.75;;;23.10;72.50;;;;;;1478044;40;20442;-61
2021/06/04 03:47:26;;;;;;;22.67;20.30;;;23.00;72.40;;;;;;1479430;40;20019;-60
2021/06/04 03:48:47;;;;;;;23.42;21.02;;;23.10;72.60;;;;;;1481035;40;20043;-60
2021/06/04 03:50:10;;;;;;;24.88;21.63;;;23.10;72.50;;;;;;1480490;40;20027;-60
2021/06/04 03:51:36;;;;;;;24.10;21.60;;;23.10;72.60;;;;;;1481444;40;20063;-60
2021/06/04 03:52:57;;;;;;;23.38;20.42;;;23.00;72.60;;;;;;1480105;40;20029;-60
2021/06/04 03:54:24;;;;;;;27.75;23.98;;;23.00;72.50;;;;;;1481282;40;20073;-60
2021/06/04 03:55:46;;;;;;;29.08;25.08;;;23.00;72.60;;;;;;1482718;40;20044;-60
2021/06/04 03:57:10;;;;;;;32.15;27.17;;;23.00;72.50;;;;;;1479761;40;20073;-60
2021/06/04 03:58:31;;;;;;;29.00;25.63;;;23.00;72.50;;;;;;1479820;40;20368;-60
2021/06/04 03:59:52;;;;;;;28.30;25.25;;;23.00;72.50;;;;;;1482374;40;20086;-60
2021/06/04 04:01:32;;;;;;;30.58;26.20;;;23.00;72.50;;;;;;1481310;40;20415;-60
2021/06/04 04:02:55;;;;;;;29.70;25.65;;;23.00;72.80;;;;;;1480703;40;20045;-60
2021/06/04 04:04:16;;;;;;;29.75;26.30;;;23.00;72.50;;;;;;1480728;40;20064;-60
2021/06/04 04:05:37;;;;;;;28.85;25.65;;;23.00;72.50;;;;;;1481226;40;20234;-60
2021/06/04 04:06:58;;;;;;;29.92;26.77;;;23.00;72.50;;;;;;1479801;40;20041;-60
2021/06/04 04:08:21;;;;;;;29.33;26.17;;;23.00;72.60;;;;;;1481668;40;20032;-60
2021/06/04 04:09:42;;;;;;;31.70;28.27;;;23.00;72.70;;;;;;1475580;40;20063;-60
2021/06/04 04:11:04;;;;;;;32.45;28.02;;;22.90;72.60;;;;;;1479084;40;20028;-60
2021/06/04 04:12:27;;;;;;;33.85;29.00;;;23.00;72.70;;;;;;1478605;40;20041;-60
2021/06/04 04:13:49;;;;;;;32.30;28.45;;;23.00;72.60;;;;;;1476466;40;20081;-60
2021/06/04 04:15:18;;;;;;;31.08;27.65;;;23.00;72.60;;;;;;1479721;40;20121;-60
2021/06/04 04:16:39;;;;;;;32.45;28.58;;;22.90;72.50;;;;;;1480097;40;20065;-60
2021/06/04 04:18:02;;;;;;;34.83;28.25;;;22.90;72.30;;;;;;1481519;40;20033;-60
2021/06/04 04:19:24;;;;;;;34.92;29.80;;;23.00;72.40;;;;;;1480897;40;20036;-60
2021/06/04 04:20:48;;;;;;;35.00;29.40;;;22.90;73.00;;;;;;1480133;40;20025;-60
2021/06/04 04:22:09;;;;;;;34.63;29.98;;;22.90;72.30;;;;;;1480776;40;20040;-60
2021/06/04 04:23:46;;;;;;;35.50;30.98;;;22.90;72.20;;;;;;1481277;40;20042;-60
2021/06/04 04:25:08;;;;;;;33.72;29.42;;;22.90;72.40;;;;;;1480832;40;20036;-60
2021/06/04 04:26:32;;;;;;;33.33;29.52;;;22.90;72.10;;;;;;1481690;40;20043;-60
2021/06/04 04:27:53;;;;;;;33.08;28.25;;;22.90;72.20;;;;;;1480797;40;20048;-60
2021/06/04 04:29:14;;;;;;;32.78;29.10;;;22.90;72.10;;;;;;1481333;40;20036;-60
2021/06/04 04:30:36;;;;;;;34.45;28.98;;;22.90;72.20;;;;;;1480242;40;20037;-60
2021/06/04 04:32:01;;;;;;;32.50;27.95;;;22.80;72.10;;;;;;1480172;40;20040;-60
2021/06/04 04:33:22;;;;;;;35.55;29.63;;;22.80;72.20;;;;;;1481047;40;20040;-60
2021/06/04 04:34:45;;;;;;;35.10;30.05;;;22.80;72.10;;;;;;1480704;40;20121;-60
2021/06/04 04:36:09;;;;;;;34.08;28.85;;;22.80;72.20;;;;;;1480223;40;20102;-60
2021/06/04 04:37:30;;;;;;;37.17;31.38;;;22.80;72.20;;;;;;1479203;40;20036;-60
2021/06/04 04:38:51;;;;;;;34.67;28.83;;;22.80;72.20;;;;;;1481561;40;20064;-60
2021/06/04 04:40:14;;;;;;;36.03;29.27;;;22.80;72.20;;;;;;1479927;40;20036;-60
2021/06/04 04:41:36;;;;;;;32.88;28.98;;;22.80;72.00;;;;;;1480423;40;20033;-60
2021/06/04 04:42:57;;;;;;;32.85;28.67;;;22.80;71.90;;;;;;1480446;40;20246;-60
2021/06/04 04:44:27;;;;;;;35.25;29.95;;;22.80;71.80;;;;;;1481224;40;20012;-60
2021/06/04 04:45:48;;;;;;;33.97;27.48;;;22.80;71.70;;;;;;1479647;40;20045;-60
2021/06/04 04:47:12;;;;;;;35.90;30.50;;;22.80;71.70;;;;;;1480796;40;20503;-60
2021/06/04 04:48:34;;;;;;;35.10;29.63;;;22.80;71.60;;;;;;1480579;40;20033;-60
2021/06/04 04:49:55;;;;;;;34.08;28.92;;;22.80;71.40;;;;;;1482671;40;20048;-60
2021/06/04 04:51:18;;;;;;;33.45;28.45;;;22.80;71.30;;;;;;1481429;40;20017;-60
2021/06/04 04:52:39;;;;;;;33.38;29.02;;;22.70;71.20;;;;;;1480610;40;20053;-60
2021/06/04 04:54:00;;;;;;;33.50;29.88;;;22.70;71.20;;;;;;1481594;40;20055;-60
2021/06/04 04:55:23;;;;;;;34.92;30.05;;;22.70;71.20;;;;;;1481154;40;20017;-60
2021/06/04 04:56:47;;;;;;;36.38;29.23;;;22.70;71.80;;;;;;1480894;40;20041;-60
2021/06/04 04:58:10;;;;;;;37.05;28.55;;;22.70;71.00;;;;;;1481854;40;20040;-60
2021/06/04 04:59:31;;;;;;;35.05;29.92;;;22.70;71.00;;;;;;1480659;40;20029;-60
2021/06/04 05:00:54;;;;;;;36.25;29.30;;;22.70;70.90;;;;;;1481040;40;20045;-60
2021/06/04 05:02:15;;;;;;;34.08;29.17;;;22.70;70.70;;;;;;1482058;40;20040;-60
2021/06/04 05:03:37;;;;;;;33.55;28.95;;;22.70;70.60;;;;;;1479747;40;20118;-60
2021/06/04 05:04:58;;;;;;;35.80;29.00;;;22.70;70.50;;;;;;1482861;40;20151;-60
2021/06/04 05:06:19;;;;;;;37.10;31.52;;;22.70;70.30;;;;;;1480781;40;20031;-60
2021/06/04 05:07:40;;;;;;;35.55;29.92;;;22.70;70.30;;;;;;1479427;40;20362;-60
2021/06/04 05:09:04;;;;;;;35.25;29.10;;;22.70;70.30;;;;;;1481925;40;20040;-60
2021/06/04 05:10:26;;;;;;;34.92;29.63;;;22.70;70.30;;;;;;1481551;40;20369;-60
2021/06/04 05:11:48;;;;;;;37.55;30.83;;;22.70;70.30;;;;;;1479986;40;20048;-60
2021/06/04 05:13:09;;;;;;;33.92;29.38;;;22.70;70.30;;;;;;1479157;40;20456;-60
2021/06/04 05:14:30;;;;;;;37.28;30.13;;;22.70;70.50;;;;;;1479600;40;20037;-60
2021/06/04 05:15:51;;;;;;;35.17;29.58;;;22.70;70.50;;;;;;1475597;40;20053;-60
2021/06/04 05:17:13;;;;;;;33.70;28.65;;;22.70;70.70;;;;;;1475034;40;20152;-60
2021/06/04 05:18:38;;;;;;;32.72;29.08;;;22.70;70.80;;;;;;1476388;40;20037;-60
2021/06/04 05:19:59;;;;;;;35.30;29.52;;;22.70;71.00;;;;;;1479006;40;20029;-60
2021/06/04 05:21:20;;;;;;;33.92;29.25;;;22.70;70.90;;;;;;1477278;40;20033;-60
2021/06/04 05:22:42;;;;;;;33.92;28.58;;;22.70;71.00;;;;;;1477102;40;20423;-61
2021/06/04 05:24:05;;;;;;;37.65;29.50;;;22.70;71.00;;;;;;1477931;40;20403;-60
2021/06/04 05:25:30;;;;;;;31.40;27.52;;;22.70;71.00;;;;;;1473796;40;20033;-60
2021/06/04 05:26:51;;;;;;;34.25;28.30;;;22.70;71.00;;;;;;1475174;40;20587;-60
2021/06/04 05:28:14;;;;;;;33.90;28.92;;;22.70;70.80;;;;;;1477855;40;20032;-60
2021/06/04 05:29:35;;;;;;;34.00;28.52;;;22.70;70.80;;;;;;1477250;40;20037;-60
2021/06/04 05:31:06;;;;;;;36.42;30.05;;;22.70;70.70;;;;;;1476121;40;20559;-60
2021/06/04 05:32:27;;;;;;;33.90;28.50;;;22.70;70.60;;;;;;1474571;40;20025;-59
2021/06/04 05:33:52;;;;;;;31.25;27.85;;;22.80;70.60;;;;;;1477240;40;20346;-60
2021/06/04 05:35:13;;;;;;;34.45;27.42;;;22.80;70.60;;;;;;1476526;40;20025;-60
2021/06/04 05:36:38;;;;;;;33.85;27.52;;;22.80;70.40;;;;;;1477245;40;20324;-60
2021/06/04 05:37:59;;;;;;;32.83;27.38;;;22.80;70.20;;;;;;1477639;40;20091;-60
2021/06/04 05:39:23;;;;;;;33.70;28.63;;;22.80;70.10;;;;;;1476039;40;20567;-60
2021/06/04 05:40:47;;;;;;;34.45;27.17;;;22.80;70.30;;;;;;1476787;40;20040;-60
2021/06/04 05:42:09;;;;;;;32.88;28.45;;;22.80;70.70;;;;;;1478091;40;20029;-60
2021/06/04 05:43:33;;;;;;;32.95;27.27;;;22.80;70.60;;;;;;1476330;40;20029;-60
2021/06/04 05:44:53;;;;;;;32.17;26.60;;;22.80;70.80;;;;;;1476846;40;20033;-60
2021/06/04 05:46:17;;;;;;;31.27;27.00;;;22.80;70.60;;;;;;1475306;40;20386;-60
2021/06/04 05:47:38;;;;;;;30.20;25.55;;;22.80;70.70;;;;;;1476845;40;20034;-60
2021/06/04 05:48:59;;;;;;;31.95;26.13;;;22.80;70.70;;;;;;1476609;40;20029;-60
2021/06/04 05:50:25;;;;;;;33.28;28.00;;;22.90;70.70;;;;;;1476834;40;20045;-60
2021/06/04 05:51:47;;;;;;;31.95;27.25;;;22.90;70.60;;;;;;1476811;40;20049;-60
2021/06/04 05:53:11;;;;;;;32.35;25.98;;;22.90;70.70;;;;;;1477459;40;20045;-60
2021/06/04 05:54:31;;;;;;;33.00;27.02;;;22.90;70.70;;;;;;1476654;40;20258;-60
2021/06/04 05:55:53;;;;;;;33.58;27.23;;;22.90;70.50;;;;;;1475928;40;20048;-60
2021/06/04 05:57:16;;;;;;;33.25;27.27;;;22.90;70.40;;;;;;1477015;40;20028;-60
2021/06/04 05:58:38;;;;;;;32.88;25.92;;;22.90;70.20;;;;;;1475745;40;20033;-60
2021/06/04 05:59:59;;;;;;;31.88;26.10;;;23.00;70.20;;;;;;1474277;40;20111;-60
2021/06/04 06:01:27;;;;;;;32.47;26.67;;;23.00;70.20;;;;;;1474160;40;20041;-60
2021/06/04 06:02:49;;;;;;;33.10;26.45;;;23.00;70.10;;;;;;1474986;40;20099;-60
2021/06/04 06:04:10;;;;;;;32.17;26.00;;;23.10;70.30;;;;;;1475919;40;20088;-60
2021/06/04 06:05:31;;;;;;;30.50;25.27;;;23.00;70.20;;;;;;1475331;40;20056;-60
2021/06/04 06:06:53;;;;;;;32.58;26.83;;;23.00;70.10;;;;;;1476070;40;20029;-60
2021/06/04 06:08:14;;;;;;;32.08;26.85;;;23.00;70.10;;;;;;1476256;40;20295;-60
2021/06/04 06:09:34;;;;;;;30.73;25.45;;;23.10;70.10;;;;;;1477430;40;20043;-60
2021/06/04 06:10:56;;;;;;;30.75;26.02;;;23.10;70.10;;;;;;1477299;40;20071;-60
2021/06/04 06:12:16;;;;;;;31.13;26.08;;;23.10;70.00;;;;;;1474848;40;20538;-60
2021/06/04 06:13:38;;;;;;;34.95;26.60;;;23.10;69.90;;;;;;1476635;40;20251;-60
2021/06/04 06:14:59;;;;;;;31.08;26.08;;;23.10;69.80;;;;;;1475199;40;20029;-60
2021/06/04 06:16:20;;;;;;;32.83;27.48;;;23.10;69.60;;;;;;1470387;40;20060;-60
2021/06/04 06:17:41;;;;;;;33.60;28.25;;;23.10;69.60;;;;;;1474697;40;20393;-60
2021/06/04 06:19:05;;;;;;;35.50;27.73;;;23.20;69.80;;;;;;1477545;40;20308;-59
2021/06/04 06:20:30;;;;;;;36.03;29.40;;;23.20;69.60;;;;;;1477212;40;20037;-60
2021/06/04 06:21:51;;;;;;;35.40;27.40;;;23.20;69.40;;;;;;1474589;40;20038;-59
2021/06/04 06:23:15;;;;;;;34.70;26.67;;;23.20;69.30;;;;;;1472586;40;20018;-59
2021/06/04 06:24:36;;;;;;;35.10;27.08;;;23.20;69.30;;;;;;1475872;40;20045;-59
2021/06/04 06:26:01;;;;;;;34.78;27.60;;;23.20;69.10;;;;;;1475160;40;20550;-60
2021/06/04 06:27:22;;;;;;;35.45;27.38;;;23.20;68.90;;;;;;1476564;40;20029;-60
2021/06/04 06:28:43;;;;;;;37.17;27.42;;;23.20;68.90;;;;;;1477033;40;20040;-59
2021/06/04 06:30:09;;;;;;;33.15;26.70;;;23.20;68.80;;;;;;1477194;40;20041;-59
2021/06/04 06:31:35;;;;;;;34.83;27.50;;;23.20;68.90;;;;;;1475512;40;20044;-60
2021/06/04 06:32:56;;;;;;;35.90;27.42;;;23.20;68.80;;;;;;1470783;40;20044;-60
2021/06/04 06:34:17;;;;;;;34.25;26.67;;;23.30;69.00;;;;;;1476821;40;20029;-59
2021/06/04 06:35:48;;;;;;;38.08;28.25;;;23.30;68.90;;;;;;1477248;40;20052;-60
2021/06/04 06:37:09;;;;;;;35.58;26.98;;;23.30;69.00;;;;;;1476889;40;20040;-60
2021/06/04 06:38:30;;;;;;;36.50;29.00;;;23.30;69.10;;;;;;1476249;40;20032;-59
2021/06/04 06:39:51;;;;;;;38.15;28.80;;;23.30;69.10;;;;;;1478126;40;20036;-60
2021/06/04 06:41:12;;;;;;;40.63;29.42;;;23.30;69.20;;;;;;1476441;40;20037;-60
2021/06/04 06:42:33;;;;;;;34.70;28.30;;;23.40;69.20;;;;;;1474846;40;20131;-60
2021/06/04 06:43:55;;;;;;;38.13;29.35;;;23.40;69.10;;;;;;1477911;40;20041;-59
2021/06/04 06:45:16;;;;;;;36.10;29.08;;;23.40;69.20;;;;;;1477016;40;20134;-60
2021/06/04 06:46:38;;;;;;;33.35;27.63;;;23.40;69.20;;;;;;1475463;40;20077;-60
2021/06/04 06:47:59;;;;;;;37.15;27.77;;;23.40;69.10;;;;;;1475590;40;20033;-59
2021/06/04 06:49:23;;;;;;;34.03;26.63;;;23.40;69.00;;;;;;1476899;40;20061;-59
2021/06/04 06:50:44;;;;;;;33.83;25.98;;;23.50;69.90;;;;;;1469950;40;20109;-59
2021/06/04 06:52:09;;;;;;;34.67;27.77;;;23.50;69.30;;;;;;1474285;40;20823;-59
2021/06/04 06:53:30;;;;;;;35.15;28.35;;;23.50;69.30;;;;;;1476162;40;20089;-59
2021/06/04 06:54:51;;;;;;;34.30;27.58;;;23.50;69.30;;;;;;1478381;40;20056;-59
2021/06/04 06:56:14;;;;;;;31.13;25.48;;;23.50;69.30;;;;;;1475022;40;20044;-60
2021/06/04 06:57:36;;;;;;;34.97;29.08;;;23.60;69.50;;;;;;1476691;40;20105;-60
2021/06/04 06:58:57;;;;;;;31.17;26.30;;;23.60;69.50;;;;;;1477317;40;20053;-59
2021/06/04 07:00:25;;;;;;;33.17;27.40;;;23.60;69.40;;;;;;1476525;40;20029;-59
2021/06/04 07:01:46;;;;;;;32.20;26.40;;;23.70;69.40;;;;;;1475428;40;20048;-59
2021/06/04 07:03:08;;;;;;;30.30;25.70;;;23.70;69.50;;;;;;1476878;40;20036;-59
2021/06/04 07:04:30;;;;;;;31.70;26.05;;;23.70;69.50;;;;;;1476981;40;20037;-59
2021/06/04 07:05:53;;;;;;;31.92;25.92;;;23.70;69.50;;;;;;1475568;40;20053;-60
2021/06/04 07:07:15;;;;;;;33.97;25.63;;;23.80;69.60;;;;;;1477841;40;20115;-59
2021/06/04 07:08:36;;;;;;;32.80;27.52;;;23.80;69.70;;;;;;1473951;40;20037;-58
2021/06/04 07:09:57;;;;;;;32.88;27.67;;;23.80;69.60;;;;;;1479598;40;20037;-59
2021/06/04 07:11:20;;;;;;;33.75;26.85;;;23.90;69.40;;;;;;1476885;40;20032;-59